EZY21X EDDM-EGGW
Flight info
| Callsign | EZY21X |
|---|---|
| Flight time | N/A |
| Altitude | 34000 |
| Route | GIVMI6E GIVMI Y101 IBAGA DCT MASEK DCT ARPEG DCT ODVIL DCT NOGRO M40 RINIS |
| Aircraft | A21N/M-SDE2E3FGHIRWXY/LB1 |
Departure
| Time | 2026-05-04 16:48 |
|---|---|
| Airport | Munich Airport (EDDM) |
Arrival
| Time | N/A |
|---|---|
| Airport | London Luton Airport (EGGW) |
| Time | Latitude | Longitude | Altitude | Speed | Heading |
|---|---|---|---|---|---|
| 2026-05-04 16:13 | 48.35184 | 11.77706 | 1472 ft | 0 kts | 262° |
| 2026-05-04 16:35 | 48.35185 | 11.77711 | 1472 ft | 3 kts | 264° |
| 2026-05-04 16:36 | 48.35183 | 11.77748 | 1470 ft | 4 kts | 301° |
| 2026-05-04 16:36 | 48.35157 | 11.77772 | 1460 ft | 2 kts | 353° |
| 2026-05-04 16:41 | 48.35163 | 11.77771 | 1472 ft | 3 kts | 353° |
| 2026-05-04 16:41 | 48.35323 | 11.77744 | 1467 ft | 11 kts | 354° |
| 2026-05-04 16:42 | 48.35593 | 11.77697 | 1471 ft | 15 kts | 353° |
| 2026-05-04 16:43 | 48.35755 | 11.77688 | 1466 ft | 9 kts | 19° |
| 2026-05-04 16:43 | 48.35894 | 11.77685 | 1468 ft | 10 kts | 353° |
| 2026-05-04 16:43 | 48.35971 | 11.77672 | 1472 ft | 12 kts | 353° |
| 2026-05-04 16:44 | 48.36249 | 11.77913 | 1458 ft | 0 kts | 53° |
| 2026-05-04 16:46 | 48.36314 | 11.78040 | 1464 ft | 11 kts | 53° |
| 2026-05-04 16:46 | 48.36399 | 11.78326 | 1465 ft | 23 kts | 82° |
| 2026-05-04 16:47 | 48.36537 | 11.80127 | 1469 ft | 147 kts | 83° |
| 2026-05-04 16:47 | 48.36819 | 11.83721 | 2041 ft | 182 kts | 82° |
| 2026-05-04 16:48 | 48.39067 | 11.88048 | 3621 ft | 217 kts | 4° |
| 2026-05-04 16:48 | 48.40567 | 11.87530 | 4185 ft | 230 kts | 338° |
| 2026-05-04 16:49 | 48.43234 | 11.84284 | 5244 ft | 269 kts | 310° |
| 2026-05-04 16:49 | 48.45672 | 11.79830 | 6728 ft | 281 kts | 309° |
| 2026-05-04 16:50 | 48.48217 | 11.75291 | 8439 ft | 286 kts | 308° |
| 2026-05-04 16:50 | 48.50825 | 11.70691 | 10159 ft | 291 kts | 307° |
| 2026-05-04 16:51 | 48.53484 | 11.65987 | 11682 ft | 299 kts | 307° |
| 2026-05-04 16:51 | 48.54848 | 11.63586 | 12437 ft | 303 kts | 307° |
| 2026-05-04 16:51 | 48.57631 | 11.58664 | 13856 ft | 316 kts | 307° |
| 2026-05-04 16:52 | 48.60644 | 11.53316 | 14449 ft | 352 kts | 307° |
| 2026-05-04 16:52 | 48.62274 | 11.50421 | 14695 ft | 371 kts | 307° |
| 2026-05-04 16:53 | 48.65763 | 11.44221 | 15169 ft | 401 kts | 307° |
| 2026-05-04 16:53 | 48.71615 | 11.34908 | 16674 ft | 416 kts | 322° |
| 2026-05-04 16:54 | 48.74023 | 11.32430 | 17204 ft | 419 kts | 323° |
| 2026-05-04 16:55 | 48.83829 | 11.22676 | 19188 ft | 428 kts | 327° |
| 2026-05-04 16:55 | 48.89435 | 11.19354 | 20072 ft | 436 kts | 339° |
| 2026-05-04 16:56 | 48.95235 | 11.16447 | 20965 ft | 441 kts | 339° |
| 2026-05-04 16:56 | 49.04042 | 11.11997 | 22375 ft | 448 kts | 339° |
| 2026-05-04 16:57 | 49.07004 | 11.10480 | 22841 ft | 450 kts | 338° |
| 2026-05-04 16:57 | 49.12995 | 11.07407 | 23670 ft | 457 kts | 339° |
| 2026-05-04 16:58 | 49.21101 | 11.03275 | 24584 ft | 464 kts | 339° |
| 2026-05-04 16:58 | 49.25165 | 11.01189 | 24999 ft | 466 kts | 338° |